LGHI/JKH METAR and TAF weather

Enter ICAO airport designator
Station Type Date Time Source
LGHI METAR 2024/04/15 07:50 UTC NOAA

LGHI 150750Z 02009KT CAVOK 22/12 Q1019


Station Type Date Time Source
LGHI Decoded METAR 2024/04/15 07:50 UTC NOAA

Chios Airport , Greece (LGHI) 38-20N 026-08E 4M
Apr 15, 2024 - 03:50 AM EDT / 2024.04.15 0750 UTC
Wind: from the NNE (020 degrees) at 10 MPH (9 KT):0
Visibility: greater than 7 mile(s):0
Temperature: 71 F (22 C)
Dew Point: 53 F (12 C)
Relative Humidity: 53%
Pressure (altimeter): 30.09 in. Hg (1019 hPa)
ob: LGHI 150750Z 02009KT CAVOK 22/12 Q1019
cycle: 8

Station Type Date Time Source
LGHI TAF 2024/03/20 18:12 UTC NOAA